sensor_id;sensor_type;location;lat;lon;timestamp;P1;durP1;ratioP1;P2;durP2;ratioP2
8353;SDS011;4656;48.090;11.498;2023-07-31T00:01:26;3.20;;;1.98;;
8353;SDS011;4656;48.090;11.498;2023-07-31T00:03:28;4.30;;;2.03;;
8353;SDS011;4656;48.090;11.498;2023-07-31T00:05:30;4.03;;;1.90;;
8353;SDS011;4656;48.090;11.498;2023-07-31T00:07:33;2.20;;;1.80;;
8353;SDS011;4656;48.090;11.498;2023-07-31T00:09:35;4.57;;;2.17;;
8353;SDS011;4656;48.090;11.498;2023-07-31T00:11:37;2.80;;;2.05;;
8353;SDS011;4656;48.090;11.498;2023-07-31T00:13:39;3.40;;;2.05;;
8353;SDS011;4656;48.090;11.498;2023-07-31T00:15:42;2.95;;;2.10;;
8353;SDS011;4656;48.090;11.498;2023-07-31T00:17:44;4.13;;;1.80;;
8353;SDS011;4656;48.090;11.498;2023-07-31T00:19:47;4.33;;;2.20;;
8353;SDS011;4656;48.090;11.498;2023-07-31T00:21:50;3.15;;;2.10;;
8353;SDS011;4656;48.090;11.498;2023-07-31T00:23:52;2.30;;;1.85;;
8353;SDS011;4656;48.090;11.498;2023-07-31T00:25:54;3.85;;;2.10;;
8353;SDS011;4656;48.090;11.498;2023-07-31T00:27:56;3.70;;;2.30;;
8353;SDS011;4656;48.090;11.498;2023-07-31T00:29:59;4.47;;;2.38;;
8353;SDS011;4656;48.090;11.498;2023-07-31T00:32:02;4.05;;;2.25;;
8353;SDS011;4656;48.090;11.498;2023-07-31T00:34:04;5.97;;;2.08;;
8353;SDS011;4656;48.090;11.498;2023-07-31T00:36:07;2.42;;;2.17;;
8353;SDS011;4656;48.090;11.498;2023-07-31T00:38:09;2.80;;;1.95;;
8353;SDS011;4656;48.090;11.498;2023-07-31T00:40:11;5.47;;;2.08;;
8353;SDS011;4656;48.090;11.498;2023-07-31T00:42:13;4.18;;;1.90;;
8353;SDS011;4656;48.090;11.498;2023-07-31T00:44:15;4.32;;;2.20;;
8353;SDS011;4656;48.090;11.498;2023-07-31T00:46:17;3.78;;;2.22;;
8353;SDS011;4656;48.090;11.498;2023-07-31T00:48:20;5.23;;;2.13;;
8353;SDS011;4656;48.090;11.498;2023-07-31T00:50:23;3.08;;;1.85;;
8353;SDS011;4656;48.090;11.498;2023-07-31T00:52:26;3.63;;;2.15;;
8353;SDS011;4656;48.090;11.498;2023-07-31T00:54:28;2.45;;;1.77;;
8353;SDS011;4656;48.090;11.498;2023-07-31T00:56:30;5.50;;;2.30;;
8353;SDS011;4656;48.090;11.498;2023-07-31T00:58:31;3.00;;;2.22;;
8353;SDS011;4656;48.090;11.498;2023-07-31T01:00:33;4.18;;;2.22;;
8353;SDS011;4656;48.090;11.498;2023-07-31T01:02:35;4.80;;;2.40;;
8353;SDS011;4656;48.090;11.498;2023-07-31T01:04:39;4.90;;;2.30;;
8353;SDS011;4656;48.090;11.498;2023-07-31T01:06:44;5.47;;;2.30;;
8353;SDS011;4656;48.090;11.498;2023-07-31T01:08:49;5.18;;;2.20;;
8353;SDS011;4656;48.090;11.498;2023-07-31T01:10:54;4.40;;;2.15;;
8353;SDS011;4656;48.090;11.498;2023-07-31T01:12:57;4.35;;;2.03;;
8353;SDS011;4656;48.090;11.498;2023-07-31T01:15:03;4.45;;;2.22;;
8353;SDS011;4656;48.090;11.498;2023-07-31T01:17:06;3.92;;;2.15;;
8353;SDS011;4656;48.090;11.498;2023-07-31T01:19:08;4.68;;;2.28;;
8353;SDS011;4656;48.090;11.498;2023-07-31T01:21:18;3.50;;;2.10;;
8353;SDS011;4656;48.090;11.498;2023-07-31T01:23:31;7.82;;;2.20;;
8353;SDS011;4656;48.090;11.498;2023-07-31T01:25:54;3.53;;;1.80;;
8353;SDS011;4656;48.090;11.498;2023-07-31T01:27:58;4.00;;;2.10;;
8353;SDS011;4656;48.090;11.498;2023-07-31T01:30:03;2.80;;;1.90;;
8353;SDS011;4656;48.090;11.498;2023-07-31T01:32:10;3.72;;;2.03;;
8353;SDS011;4656;48.090;11.498;2023-07-31T01:34:13;3.97;;;2.20;;
8353;SDS011;4656;48.090;11.498;2023-07-31T01:36:15;3.38;;;2.25;;
8353;SDS011;4656;48.090;11.498;2023-07-31T01:38:20;6.05;;;2.10;;
8353;SDS011;4656;48.090;11.498;2023-07-31T01:40:22;2.75;;;2.20;;
8353;SDS011;4656;48.090;11.498;2023-07-31T01:42:26;3.27;;;2.10;;
8353;SDS011;4656;48.090;11.498;2023-07-31T01:44:28;3.92;;;2.17;;
8353;SDS011;4656;48.090;11.498;2023-07-31T01:46:30;3.20;;;2.05;;
8353;SDS011;4656;48.090;11.498;2023-07-31T01:48:32;8.77;;;2.00;;
8353;SDS011;4656;48.090;11.498;2023-07-31T01:50:36;3.65;;;1.90;;
8353;SDS011;4656;48.090;11.498;2023-07-31T01:52:37;4.20;;;2.10;;
8353;SDS011;4656;48.090;11.498;2023-07-31T01:54:40;3.40;;;2.00;;
8353;SDS011;4656;48.090;11.498;2023-07-31T01:56:41;2.97;;;2.05;;
8353;SDS011;4656;48.090;11.498;2023-07-31T01:58:44;3.00;;;2.05;;
8353;SDS011;4656;48.090;11.498;2023-07-31T02:00:46;3.03;;;1.80;;
8353;SDS011;4656;48.090;11.498;2023-07-31T02:02:48;4.82;;;2.40;;
8353;SDS011;4656;48.090;11.498;2023-07-31T02:04:50;3.17;;;1.80;;
8353;SDS011;4656;48.090;11.498;2023-07-31T02:06:53;3.75;;;2.00;;
8353;SDS011;4656;48.090;11.498;2023-07-31T02:08:55;8.23;;;3.00;;
8353;SDS011;4656;48.090;11.498;2023-07-31T02:10:57;5.63;;;2.17;;
8353;SDS011;4656;48.090;11.498;2023-07-31T02:12:59;4.35;;;2.22;;
8353;SDS011;4656;48.090;11.498;2023-07-31T02:15:03;2.90;;;1.92;;
8353;SDS011;4656;48.090;11.498;2023-07-31T02:17:05;3.90;;;2.00;;
8353;SDS011;4656;48.090;11.498;2023-07-31T02:19:07;3.40;;;1.90;;
8353;SDS011;4656;48.090;11.498;2023-07-31T02:21:09;4.53;;;2.07;;
8353;SDS011;4656;48.090;11.498;2023-07-31T02:23:11;4.28;;;2.28;;
8353;SDS011;4656;48.090;11.498;2023-07-31T02:25:13;3.17;;;2.25;;
8353;SDS011;4656;48.090;11.498;2023-07-31T02:27:16;4.50;;;1.98;;
8353;SDS011;4656;48.090;11.498;2023-07-31T02:29:17;3.40;;;2.13;;
8353;SDS011;4656;48.090;11.498;2023-07-31T02:31:20;3.30;;;1.90;;
8353;SDS011;4656;48.090;11.498;2023-07-31T02:33:21;3.72;;;2.00;;
8353;SDS011;4656;48.090;11.498;2023-07-31T02:35:23;6.13;;;2.20;;
8353;SDS011;4656;48.090;11.498;2023-07-31T02:37:26;4.75;;;2.22;;
8353;SDS011;4656;48.090;11.498;2023-07-31T02:39:28;4.07;;;1.90;;
8353;SDS011;4656;48.090;11.498;2023-07-31T02:41:31;2.10;;;1.90;;
8353;SDS011;4656;48.090;11.498;2023-07-31T02:43:33;5.38;;;2.47;;
8353;SDS011;4656;48.090;11.498;2023-07-31T02:45:34;2.60;;;2.00;;
8353;SDS011;4656;48.090;11.498;2023-07-31T02:47:37;5.37;;;2.00;;
8353;SDS011;4656;48.090;11.498;2023-07-31T02:49:39;3.10;;;2.22;;
8353;SDS011;4656;48.090;11.498;2023-07-31T02:51:42;2.83;;;1.98;;
8353;SDS011;4656;48.090;11.498;2023-07-31T02:53:44;3.60;;;2.20;;
8353;SDS011;4656;48.090;11.498;2023-07-31T02:55:46;4.47;;;2.30;;
8353;SDS011;4656;48.090;11.498;2023-07-31T02:57:48;4.05;;;2.17;;
8353;SDS011;4656;48.090;11.498;2023-07-31T02:59:52;5.60;;;2.20;;
8353;SDS011;4656;48.090;11.498;2023-07-31T03:01:54;4.40;;;2.30;;
8353;SDS011;4656;48.090;11.498;2023-07-31T03:03:58;4.03;;;2.50;;
8353;SDS011;4656;48.090;11.498;2023-07-31T03:06:00;4.45;;;2.47;;
8353;SDS011;4656;48.090;11.498;2023-07-31T03:08:02;5.72;;;2.47;;
8353;SDS011;4656;48.090;11.498;2023-07-31T03:10:05;3.42;;;2.38;;
8353;SDS011;4656;48.090;11.498;2023-07-31T03:12:07;3.63;;;2.78;;
8353;SDS011;4656;48.090;11.498;2023-07-31T03:14:10;3.80;;;2.33;;
8353;SDS011;4656;48.090;11.498;2023-07-31T03:16:12;4.22;;;2.20;;
8353;SDS011;4656;48.090;11.498;2023-07-31T03:18:14;5.50;;;2.60;;
8353;SDS011;4656;48.090;11.498;2023-07-31T03:20:17;5.50;;;2.53;;
8353;SDS011;4656;48.090;11.498;2023-07-31T03:22:20;4.38;;;2.88;;
8353;SDS011;4656;48.090;11.498;2023-07-31T03:24:22;3.33;;;2.47;;
8353;SDS011;4656;48.090;11.498;2023-07-31T03:26:24;4.72;;;2.60;;
8353;SDS011;4656;48.090;11.498;2023-07-31T03:28:26;5.50;;;2.78;;
8353;SDS011;4656;48.090;11.498;2023-07-31T03:30:28;4.90;;;2.75;;
8353;SDS011;4656;48.090;11.498;2023-07-31T03:32:30;2.90;;;2.35;;
8353;SDS011;4656;48.090;11.498;2023-07-31T03:34:32;4.20;;;2.60;;
8353;SDS011;4656;48.090;11.498;2023-07-31T03:36:36;4.35;;;2.63;;
8353;SDS011;4656;48.090;11.498;2023-07-31T03:38:38;6.13;;;2.63;;
8353;SDS011;4656;48.090;11.498;2023-07-31T03:40:40;7.32;;;2.65;;
8353;SDS011;4656;48.090;11.498;2023-07-31T03:42:41;5.15;;;2.80;;
8353;SDS011;4656;48.090;11.498;2023-07-31T03:44:43;3.33;;;2.72;;
8353;SDS011;4656;48.090;11.498;2023-07-31T03:46:45;3.42;;;2.50;;
8353;SDS011;4656;48.090;11.498;2023-07-31T03:48:48;4.55;;;2.70;;
8353;SDS011;4656;48.090;11.498;2023-07-31T03:50:50;5.35;;;2.78;;
8353;SDS011;4656;48.090;11.498;2023-07-31T03:52:53;4.43;;;2.70;;
8353;SDS011;4656;48.090;11.498;2023-07-31T03:54:55;3.47;;;2.60;;
8353;SDS011;4656;48.090;11.498;2023-07-31T03:56:58;5.22;;;2.80;;
8353;SDS011;4656;48.090;11.498;2023-07-31T03:59:00;3.92;;;2.85;;
8353;SDS011;4656;48.090;11.498;2023-07-31T04:01:02;5.13;;;2.63;;
8353;SDS011;4656;48.090;11.498;2023-07-31T04:03:04;4.40;;;2.60;;
8353;SDS011;4656;48.090;11.498;2023-07-31T04:05:06;3.33;;;2.90;;
8353;SDS011;4656;48.090;11.498;2023-07-31T04:07:09;3.78;;;2.90;;
8353;SDS011;4656;48.090;11.498;2023-07-31T04:09:13;4.30;;;2.67;;
8353;SDS011;4656;48.090;11.498;2023-07-31T04:11:15;6.53;;;2.90;;
8353;SDS011;4656;48.090;11.498;2023-07-31T04:13:16;5.95;;;2.80;;
8353;SDS011;4656;48.090;11.498;2023-07-31T04:15:18;4.63;;;2.63;;
8353;SDS011;4656;48.090;11.498;2023-07-31T04:17:20;5.20;;;2.90;;
8353;SDS011;4656;48.090;11.498;2023-07-31T04:19:22;6.25;;;2.50;;
8353;SDS011;4656;48.090;11.498;2023-07-31T04:21:24;5.03;;;2.85;;
8353;SDS011;4656;48.090;11.498;2023-07-31T04:23:26;3.05;;;2.42;;
8353;SDS011;4656;48.090;11.498;2023-07-31T04:25:30;6.00;;;2.80;;
8353;SDS011;4656;48.090;11.498;2023-07-31T04:27:32;4.57;;;2.42;;
8353;SDS011;4656;48.090;11.498;2023-07-31T04:29:34;4.55;;;2.40;;
8353;SDS011;4656;48.090;11.498;2023-07-31T04:31:36;3.53;;;2.50;;
8353;SDS011;4656;48.090;11.498;2023-07-31T04:33:38;2.67;;;2.15;;
8353;SDS011;4656;48.090;11.498;2023-07-31T04:35:40;4.32;;;2.40;;
8353;SDS011;4656;48.090;11.498;2023-07-31T04:37:42;3.53;;;2.40;;
8353;SDS011;4656;48.090;11.498;2023-07-31T04:39:44;3.88;;;2.40;;
8353;SDS011;4656;48.090;11.498;2023-07-31T04:41:48;5.63;;;2.50;;
8353;SDS011;4656;48.090;11.498;2023-07-31T04:43:50;3.13;;;2.30;;
8353;SDS011;4656;48.090;11.498;2023-07-31T04:45:51;4.10;;;2.40;;
8353;SDS011;4656;48.090;11.498;2023-07-31T04:47:54;3.15;;;2.10;;
8353;SDS011;4656;48.090;11.498;2023-07-31T04:49:55;3.10;;;2.17;;
8353;SDS011;4656;48.090;11.498;2023-07-31T04:51:57;5.65;;;2.40;;
8353;SDS011;4656;48.090;11.498;2023-07-31T04:54:02;3.83;;;2.05;;
8353;SDS011;4656;48.090;11.498;2023-07-31T04:56:04;4.45;;;2.13;;
8353;SDS011;4656;48.090;11.498;2023-07-31T04:58:08;2.42;;;1.90;;
8353;SDS011;4656;48.090;11.498;2023-07-31T05:00:10;4.90;;;2.22;;
8353;SDS011;4656;48.090;11.498;2023-07-31T05:02:12;4.67;;;2.13;;
8353;SDS011;4656;48.090;11.498;2023-07-31T05:04:15;3.45;;;1.90;;
8353;SDS011;4656;48.090;11.498;2023-07-31T05:06:17;4.60;;;2.05;;
8353;SDS011;4656;48.090;11.498;2023-07-31T05:08:20;2.95;;;1.80;;
8353;SDS011;4656;48.090;11.498;2023-07-31T05:10:22;3.13;;;1.95;;
8353;SDS011;4656;48.090;11.498;2023-07-31T05:12:24;2.15;;;1.70;;
8353;SDS011;4656;48.090;11.498;2023-07-31T05:14:28;3.30;;;1.85;;
8353;SDS011;4656;48.090;11.498;2023-07-31T05:16:30;2.72;;;1.80;;
8353;SDS011;4656;48.090;11.498;2023-07-31T05:18:32;3.45;;;1.95;;
8353;SDS011;4656;48.090;11.498;2023-07-31T05:20:34;3.37;;;2.00;;
8353;SDS011;4656;48.090;11.498;2023-07-31T05:22:35;4.47;;;2.03;;
8353;SDS011;4656;48.090;11.498;2023-07-31T05:24:37;2.95;;;2.00;;
8353;SDS011;4656;48.090;11.498;2023-07-31T05:26:39;2.42;;;1.77;;
8353;SDS011;4656;48.090;11.498;2023-07-31T05:28:42;2.75;;;1.80;;
8353;SDS011;4656;48.090;11.498;2023-07-31T05:30:45;3.33;;;1.90;;
8353;SDS011;4656;48.090;11.498;2023-07-31T05:32:47;2.28;;;1.88;;
8353;SDS011;4656;48.090;11.498;2023-07-31T05:34:50;4.90;;;2.20;;
8353;SDS011;4656;48.090;11.498;2023-07-31T05:36:52;2.60;;;1.80;;
8353;SDS011;4656;48.090;11.498;2023-07-31T05:38:54;2.00;;;1.70;;
8353;SDS011;4656;48.090;11.498;2023-07-31T05:40:55;3.03;;;1.70;;
8353;SDS011;4656;48.090;11.498;2023-07-31T05:42:57;5.00;;;1.90;;
8353;SDS011;4656;48.090;11.498;2023-07-31T05:44:59;2.50;;;1.90;;
8353;SDS011;4656;48.090;11.498;2023-07-31T05:47:03;3.20;;;1.98;;
8353;SDS011;4656;48.090;11.498;2023-07-31T05:49:05;4.00;;;1.83;;
8353;SDS011;4656;48.090;11.498;2023-07-31T05:51:07;3.15;;;1.83;;
8353;SDS011;4656;48.090;11.498;2023-07-31T05:53:10;2.90;;;1.80;;
8353;SDS011;4656;48.090;11.498;2023-07-31T05:55:12;2.15;;;1.63;;
8353;SDS011;4656;48.090;11.498;2023-07-31T05:57:14;3.08;;;2.00;;
8353;SDS011;4656;48.090;11.498;2023-07-31T05:59:16;4.10;;;2.00;;
8353;SDS011;4656;48.090;11.498;2023-07-31T06:01:18;4.38;;;2.10;;
8353;SDS011;4656;48.090;11.498;2023-07-31T06:03:23;3.92;;;2.08;;
8353;SDS011;4656;48.090;11.498;2023-07-31T06:05:25;5.30;;;2.17;;
8353;SDS011;4656;48.090;11.498;2023-07-31T06:07:28;2.83;;;1.90;;
8353;SDS011;4656;48.090;11.498;2023-07-31T06:09:30;2.60;;;1.80;;
8353;SDS011;4656;48.090;11.498;2023-07-31T06:11:33;2.63;;;1.80;;
8353;SDS011;4656;48.090;11.498;2023-07-31T06:13:35;2.53;;;1.77;;
8353;SDS011;4656;48.090;11.498;2023-07-31T06:15:37;2.20;;;1.60;;
8353;SDS011;4656;48.090;11.498;2023-07-31T06:17:39;3.65;;;1.80;;
8353;SDS011;4656;48.090;11.498;2023-07-31T06:19:42;5.00;;;1.88;;
8353;SDS011;4656;48.090;11.498;2023-07-31T06:21:44;3.05;;;1.70;;
8353;SDS011;4656;48.090;11.498;2023-07-31T06:23:46;2.67;;;1.88;;
8353;SDS011;4656;48.090;11.498;2023-07-31T06:25:48;2.40;;;1.50;;
8353;SDS011;4656;48.090;11.498;2023-07-31T06:27:50;2.83;;;1.77;;
8353;SDS011;4656;48.090;11.498;2023-07-31T06:29:51;3.28;;;2.00;;
8353;SDS011;4656;48.090;11.498;2023-07-31T06:31:53;1.75;;;1.60;;
8353;SDS011;4656;48.090;11.498;2023-07-31T06:33:56;2.75;;;1.60;;
8353;SDS011;4656;48.090;11.498;2023-07-31T06:35:59;2.40;;;1.63;;
8353;SDS011;4656;48.090;11.498;2023-07-31T06:38:01;3.35;;;1.70;;
8353;SDS011;4656;48.090;11.498;2023-07-31T06:40:04;4.63;;;2.15;;
8353;SDS011;4656;48.090;11.498;2023-07-31T06:42:07;3.38;;;1.88;;
8353;SDS011;4656;48.090;11.498;2023-07-31T06:44:10;2.83;;;1.63;;
8353;SDS011;4656;48.090;11.498;2023-07-31T06:46:11;2.50;;;1.90;;
8353;SDS011;4656;48.090;11.498;2023-07-31T06:48:13;3.75;;;1.70;;
8353;SDS011;4656;48.090;11.498;2023-07-31T06:50:15;2.00;;;1.70;;
8353;SDS011;4656;48.090;11.498;2023-07-31T06:52:19;2.75;;;1.52;;
8353;SDS011;4656;48.090;11.498;2023-07-31T06:54:20;3.28;;;1.80;;
8353;SDS011;4656;48.090;11.498;2023-07-31T06:56:22;3.47;;;1.92;;
8353;SDS011;4656;48.090;11.498;2023-07-31T06:58:24;2.35;;;1.83;;
8353;SDS011;4656;48.090;11.498;2023-07-31T07:00:26;3.58;;;1.80;;
8353;SDS011;4656;48.090;11.498;2023-07-31T07:02:29;3.10;;;1.83;;
8353;SDS011;4656;48.090;11.498;2023-07-31T07:04:31;2.40;;;1.70;;
8353;SDS011;4656;48.090;11.498;2023-07-31T07:06:33;2.60;;;1.70;;
8353;SDS011;4656;48.090;11.498;2023-07-31T07:08:36;2.50;;;1.67;;
8353;SDS011;4656;48.090;11.498;2023-07-31T07:10:38;3.15;;;1.80;;
8353;SDS011;4656;48.090;11.498;2023-07-31T07:12:58;2.80;;;1.80;;
8353;SDS011;4656;48.090;11.498;2023-07-31T07:15:00;4.47;;;1.70;;
8353;SDS011;4656;48.090;11.498;2023-07-31T07:17:01;3.63;;;1.80;;
8353;SDS011;4656;48.090;11.498;2023-07-31T07:19:03;4.40;;;1.65;;
8353;SDS011;4656;48.090;11.498;2023-07-31T07:21:06;2.75;;;1.73;;
8353;SDS011;4656;48.090;11.498;2023-07-31T07:23:08;2.33;;;1.60;;
8353;SDS011;4656;48.090;11.498;2023-07-31T07:25:12;2.05;;;1.50;;
8353;SDS011;4656;48.090;11.498;2023-07-31T07:27:14;3.40;;;1.55;;
8353;SDS011;4656;48.090;11.498;2023-07-31T07:29:16;2.70;;;1.60;;
8353;SDS011;4656;48.090;11.498;2023-07-31T07:31:18;2.58;;;1.40;;
8353;SDS011;4656;48.090;11.498;2023-07-31T07:33:20;2.10;;;1.60;;
8353;SDS011;4656;48.090;11.498;2023-07-31T07:35:22;2.42;;;1.48;;
8353;SDS011;4656;48.090;11.498;2023-07-31T07:37:24;3.10;;;1.40;;
8353;SDS011;4656;48.090;11.498;2023-07-31T07:39:26;2.25;;;1.50;;
8353;SDS011;4656;48.090;11.498;2023-07-31T07:41:30;2.20;;;1.55;;
8353;SDS011;4656;48.090;11.498;2023-07-31T07:43:32;2.85;;;1.63;;
8353;SDS011;4656;48.090;11.498;2023-07-31T07:45:34;3.33;;;1.58;;
8353;SDS011;4656;48.090;11.498;2023-07-31T07:47:37;2.20;;;1.50;;
8353;SDS011;4656;48.090;11.498;2023-07-31T07:49:39;2.55;;;1.50;;
8353;SDS011;4656;48.090;11.498;2023-07-31T07:51:41;4.35;;;1.63;;
8353;SDS011;4656;48.090;11.498;2023-07-31T07:53:43;3.20;;;1.70;;
8353;SDS011;4656;48.090;11.498;2023-07-31T07:55:45;4.10;;;1.80;;
8353;SDS011;4656;48.090;11.498;2023-07-31T07:57:49;3.50;;;1.58;;
8353;SDS011;4656;48.090;11.498;2023-07-31T07:59:51;1.75;;;1.40;;
8353;SDS011;4656;48.090;11.498;2023-07-31T08:01:53;2.70;;;1.33;;
8353;SDS011;4656;48.090;11.498;2023-07-31T08:03:55;2.72;;;1.75;;
8353;SDS011;4656;48.090;11.498;2023-07-31T08:05:58;1.92;;;1.55;;
8353;SDS011;4656;48.090;11.498;2023-07-31T08:08:00;2.75;;;1.50;;
8353;SDS011;4656;48.090;11.498;2023-07-31T08:10:02;4.18;;;1.77;;
8353;SDS011;4656;48.090;11.498;2023-07-31T08:12:04;2.42;;;1.50;;
8353;SDS011;4656;48.090;11.498;2023-07-31T08:14:08;2.90;;;1.60;;
8353;SDS011;4656;48.090;11.498;2023-07-31T08:16:10;3.03;;;1.55;;
8353;SDS011;4656;48.090;11.498;2023-07-31T08:18:12;2.20;;;1.50;;
8353;SDS011;4656;48.090;11.498;2023-07-31T08:20:14;2.83;;;1.63;;
8353;SDS011;4656;48.090;11.498;2023-07-31T08:22:16;4.03;;;1.75;;
8353;SDS011;4656;48.090;11.498;2023-07-31T08:24:18;4.88;;;1.90;;
8353;SDS011;4656;48.090;11.498;2023-07-31T08:26:21;3.40;;;1.67;;
8353;SDS011;4656;48.090;11.498;2023-07-31T08:28:23;2.80;;;1.40;;
8353;SDS011;4656;48.090;11.498;2023-07-31T08:30:26;2.55;;;1.60;;
8353;SDS011;4656;48.090;11.498;2023-07-31T08:32:28;1.93;;;1.53;;
8353;SDS011;4656;48.090;11.498;2023-07-31T08:34:30;2.55;;;1.50;;
8353;SDS011;4656;48.090;11.498;2023-07-31T08:36:33;3.10;;;1.60;;
8353;SDS011;4656;48.090;11.498;2023-07-31T08:38:35;3.58;;;1.70;;
8353;SDS011;4656;48.090;11.498;2023-07-31T08:40:37;2.70;;;1.75;;
8353;SDS011;4656;48.090;11.498;2023-07-31T08:42:43;2.92;;;2.03;;
8353;SDS011;4656;48.090;11.498;2023-07-31T08:44:45;2.23;;;1.70;;
8353;SDS011;4656;48.090;11.498;2023-07-31T08:46:49;3.47;;;2.10;;
8353;SDS011;4656;48.090;11.498;2023-07-31T08:48:52;4.45;;;1.70;;
8353;SDS011;4656;48.090;11.498;2023-07-31T08:50:55;2.30;;;1.58;;
8353;SDS011;4656;48.090;11.498;2023-07-31T08:52:57;3.38;;;1.73;;
8353;SDS011;4656;48.090;11.498;2023-07-31T08:54:59;2.30;;;1.75;;
8353;SDS011;4656;48.090;11.498;2023-07-31T08:57:00;2.60;;;1.60;;
8353;SDS011;4656;48.090;11.498;2023-07-31T08:59:02;2.30;;;1.65;;
8353;SDS011;4656;48.090;11.498;2023-07-31T09:01:05;2.92;;;1.77;;
8353;SDS011;4656;48.090;11.498;2023-07-31T09:03:12;2.95;;;1.60;;
8353;SDS011;4656;48.090;11.498;2023-07-31T09:05:15;7.00;;;1.77;;
8353;SDS011;4656;48.090;11.498;2023-07-31T09:07:17;2.45;;;1.70;;
8353;SDS011;4656;48.090;11.498;2023-07-31T09:09:20;2.60;;;1.75;;
8353;SDS011;4656;48.090;11.498;2023-07-31T09:11:22;1.98;;;1.50;;
8353;SDS011;4656;48.090;11.498;2023-07-31T09:13:25;2.30;;;1.45;;
8353;SDS011;4656;48.090;11.498;2023-07-31T09:15:27;3.00;;;1.60;;
8353;SDS011;4656;48.090;11.498;2023-07-31T09:17:30;4.43;;;1.50;;
8353;SDS011;4656;48.090;11.498;2023-07-31T09:19:34;2.70;;;1.70;;
8353;SDS011;4656;48.090;11.498;2023-07-31T09:21:42;2.58;;;1.52;;
8353;SDS011;4656;48.090;11.498;2023-07-31T09:23:49;2.78;;;1.60;;
8353;SDS011;4656;48.090;11.498;2023-07-31T09:25:53;3.23;;;1.50;;
8353;SDS011;4656;48.090;11.498;2023-07-31T09:27:57;3.00;;;1.60;;
8353;SDS011;4656;48.090;11.498;2023-07-31T09:29:59;4.03;;;1.75;;
8353;SDS011;4656;48.090;11.498;2023-07-31T09:32:01;3.47;;;1.50;;
8353;SDS011;4656;48.090;11.498;2023-07-31T09:34:03;2.65;;;1.70;;
8353;SDS011;4656;48.090;11.498;2023-07-31T09:36:07;3.90;;;1.67;;
8353;SDS011;4656;48.090;11.498;2023-07-31T09:38:09;2.70;;;1.85;;
8353;SDS011;4656;48.090;11.498;2023-07-31T09:40:12;2.63;;;1.45;;
8353;SDS011;4656;48.090;11.498;2023-07-31T09:42:26;4.10;;;1.70;;
8353;SDS011;4656;48.090;11.498;2023-07-31T09:44:39;3.70;;;1.58;;
8353;SDS011;4656;48.090;11.498;2023-07-31T09:46:41;2.85;;;1.60;;
8353;SDS011;4656;48.090;11.498;2023-07-31T09:48:43;3.28;;;1.90;;
8353;SDS011;4656;48.090;11.498;2023-07-31T09:50:46;3.33;;;1.60;;
8353;SDS011;4656;48.090;11.498;2023-07-31T09:52:50;3.85;;;1.63;;
8353;SDS011;4656;48.090;11.498;2023-07-31T09:54:52;2.65;;;1.50;;
8353;SDS011;4656;48.090;11.498;2023-07-31T09:56:54;2.15;;;1.60;;
8353;SDS011;4656;48.090;11.498;2023-07-31T09:58:57;2.03;;;1.55;;
8353;SDS011;4656;48.090;11.498;2023-07-31T10:01:00;3.88;;;1.80;;
8353;SDS011;4656;48.090;11.498;2023-07-31T10:03:04;2.47;;;1.63;;
8353;SDS011;4656;48.090;11.498;2023-07-31T10:05:07;2.72;;;1.52;;
8353;SDS011;4656;48.090;11.498;2023-07-31T10:07:09;4.25;;;1.73;;
8353;SDS011;4656;48.090;11.498;2023-07-31T10:09:13;2.13;;;1.73;;
8353;SDS011;4656;48.090;11.498;2023-07-31T10:11:17;3.35;;;1.80;;
8353;SDS011;4656;48.090;11.498;2023-07-31T10:13:20;4.00;;;1.87;;
8353;SDS011;4656;48.090;11.498;2023-07-31T10:15:23;2.70;;;1.60;;
8353;SDS011;4656;48.090;11.498;2023-07-31T10:17:25;5.03;;;1.67;;
8353;SDS011;4656;48.090;11.498;2023-07-31T10:19:27;4.55;;;1.95;;
8353;SDS011;4656;48.090;11.498;2023-07-31T10:21:31;2.90;;;1.70;;
8353;SDS011;4656;48.090;11.498;2023-07-31T10:23:35;2.00;;;1.70;;
8353;SDS011;4656;48.090;11.498;2023-07-31T10:25:38;2.70;;;1.70;;
8353;SDS011;4656;48.090;11.498;2023-07-31T10:27:40;2.70;;;1.60;;
8353;SDS011;4656;48.090;11.498;2023-07-31T10:29:43;3.47;;;1.60;;
8353;SDS011;4656;48.090;11.498;2023-07-31T10:31:47;2.28;;;1.65;;
8353;SDS011;4656;48.090;11.498;2023-07-31T10:33:50;2.95;;;1.75;;
8353;SDS011;4656;48.090;11.498;2023-07-31T10:38:10;2.47;;;1.65;;
8353;SDS011;4656;48.090;11.498;2023-07-31T10:40:15;1.97;;;1.60;;
8353;SDS011;4656;48.090;11.498;2023-07-31T10:42:21;2.78;;;1.52;;
8353;SDS011;4656;48.090;11.498;2023-07-31T10:44:28;2.40;;;1.67;;
8353;SDS011;4656;48.090;11.498;2023-07-31T10:46:30;1.80;;;1.63;;
8353;SDS011;4656;48.090;11.498;2023-07-31T10:48:33;2.17;;;1.60;;
8353;SDS011;4656;48.090;11.498;2023-07-31T10:50:37;2.77;;;1.50;;
8353;SDS011;4656;48.090;11.498;2023-07-31T10:52:39;3.65;;;1.55;;
8353;SDS011;4656;48.090;11.498;2023-07-31T10:54:40;2.60;;;1.70;;
8353;SDS011;4656;48.090;11.498;2023-07-31T10:56:44;3.28;;;2.03;;
8353;SDS011;4656;48.090;11.498;2023-07-31T10:58:48;2.80;;;1.77;;
8353;SDS011;4656;48.090;11.498;2023-07-31T11:01:03;4.07;;;1.83;;
8353;SDS011;4656;48.090;11.498;2023-07-31T11:03:06;2.27;;;1.70;;
8353;SDS011;4656;48.090;11.498;2023-07-31T11:05:09;2.90;;;1.90;;
8353;SDS011;4656;48.090;11.498;2023-07-31T11:07:11;2.20;;;1.70;;
8353;SDS011;4656;48.090;11.498;2023-07-31T11:09:13;2.83;;;1.80;;
8353;SDS011;4656;48.090;11.498;2023-07-31T11:11:16;2.50;;;1.80;;
8353;SDS011;4656;48.090;11.498;2023-07-31T11:13:19;3.80;;;2.00;;
8353;SDS011;4656;48.090;11.498;2023-07-31T11:15:21;3.13;;;1.60;;
8353;SDS011;4656;48.090;11.498;2023-07-31T11:17:24;4.60;;;1.80;;
8353;SDS011;4656;48.090;11.498;2023-07-31T11:19:26;3.17;;;1.60;;
8353;SDS011;4656;48.090;11.498;2023-07-31T11:21:28;2.17;;;1.70;;
8353;SDS011;4656;48.090;11.498;2023-07-31T11:23:31;4.03;;;1.80;;
8353;SDS011;4656;48.090;11.498;2023-07-31T11:25:33;3.40;;;1.87;;
8353;SDS011;4656;48.090;11.498;2023-07-31T11:27:38;3.45;;;1.83;;
8353;SDS011;4656;48.090;11.498;2023-07-31T11:29:42;3.10;;;1.73;;
8353;SDS011;4656;48.090;11.498;2023-07-31T11:31:46;4.22;;;1.65;;
8353;SDS011;4656;48.090;11.498;2023-07-31T11:33:49;3.53;;;1.90;;
8353;SDS011;4656;48.090;11.498;2023-07-31T11:35:51;2.97;;;1.70;;
8353;SDS011;4656;48.090;11.498;2023-07-31T11:37:53;1.53;;;1.43;;
8353;SDS011;4656;48.090;11.498;2023-07-31T11:39:58;2.92;;;1.70;;
8353;SDS011;4656;48.090;11.498;2023-07-31T11:41:59;2.40;;;1.48;;
8353;SDS011;4656;48.090;11.498;2023-07-31T11:44:02;2.65;;;1.70;;
8353;SDS011;4656;48.090;11.498;2023-07-31T11:46:04;2.60;;;1.67;;
8353;SDS011;4656;48.090;11.498;2023-07-31T11:48:08;2.35;;;1.50;;
8353;SDS011;4656;48.090;11.498;2023-07-31T11:50:10;5.07;;;1.67;;
8353;SDS011;4656;48.090;11.498;2023-07-31T11:52:15;2.50;;;1.48;;
8353;SDS011;4656;48.090;11.498;2023-07-31T11:54:16;2.67;;;1.60;;
8353;SDS011;4656;48.090;11.498;2023-07-31T11:56:19;2.70;;;1.80;;
8353;SDS011;4656;48.090;11.498;2023-07-31T11:58:22;2.60;;;1.80;;
8353;SDS011;4656;48.090;11.498;2023-07-31T12:00:24;3.55;;;1.70;;
8353;SDS011;4656;48.090;11.498;2023-07-31T12:02:26;2.45;;;1.70;;
8353;SDS011;4656;48.090;11.498;2023-07-31T12:04:30;2.97;;;1.70;;
8353;SDS011;4656;48.090;11.498;2023-07-31T12:06:33;3.20;;;1.57;;
8353;SDS011;4656;48.090;11.498;2023-07-31T12:08:36;4.28;;;1.90;;
8353;SDS011;4656;48.090;11.498;2023-07-31T12:10:38;3.40;;;1.75;;
8353;SDS011;4656;48.090;11.498;2023-07-31T12:12:41;2.50;;;1.73;;
8353;SDS011;4656;48.090;11.498;2023-07-31T12:14:43;2.47;;;1.70;;
8353;SDS011;4656;48.090;11.498;2023-07-31T12:16:45;2.67;;;1.67;;
8353;SDS011;4656;48.090;11.498;2023-07-31T12:18:49;2.42;;;1.75;;
8353;SDS011;4656;48.090;11.498;2023-07-31T12:20:55;2.38;;;1.75;;
8353;SDS011;4656;48.090;11.498;2023-07-31T12:22:57;2.95;;;1.70;;
8353;SDS011;4656;48.090;11.498;2023-07-31T12:24:59;2.65;;;1.90;;
8353;SDS011;4656;48.090;11.498;2023-07-31T12:27:07;1.63;;;1.52;;
8353;SDS011;4656;48.090;11.498;2023-07-31T12:29:09;2.58;;;1.70;;
8353;SDS011;4656;48.090;11.498;2023-07-31T12:31:11;5.97;;;1.63;;
8353;SDS011;4656;48.090;11.498;2023-07-31T12:33:14;3.23;;;1.80;;